sensor_id;sensor_type;location;lat;lon;timestamp;P1;durP1;ratioP1;P2;durP2;ratioP2
33413;SDS011;60055;41.884;12.534;2022-12-07T00:01:10;51.47;;;24.05;;
33413;SDS011;60055;41.884;12.534;2022-12-07T00:03:38;52.88;;;24.48;;
33413;SDS011;60055;41.884;12.534;2022-12-07T00:06:05;53.65;;;23.38;;
33413;SDS011;60055;41.884;12.534;2022-12-07T00:08:33;51.67;;;23.80;;
33413;SDS011;60055;41.884;12.534;2022-12-07T00:11:03;51.67;;;23.52;;
33413;SDS011;60055;41.884;12.534;2022-12-07T00:13:33;46.50;;;24.00;;
33413;SDS011;60055;41.884;12.534;2022-12-07T00:16:11;54.88;;;25.25;;
33413;SDS011;60055;41.884;12.534;2022-12-07T00:18:41;53.97;;;23.75;;
33413;SDS011;60055;41.884;12.534;2022-12-07T00:23:44;50.75;;;23.70;;
33413;SDS011;60055;41.884;12.534;2022-12-07T00:28:39;55.50;;;23.92;;
33413;SDS011;60055;41.884;12.534;2022-12-07T00:31:09;50.70;;;23.70;;
33413;SDS011;60055;41.884;12.534;2022-12-07T00:33:36;53.63;;;24.70;;
33413;SDS011;60055;41.884;12.534;2022-12-07T00:36:03;49.00;;;24.63;;
33413;SDS011;60055;41.884;12.534;2022-12-07T00:38:32;49.28;;;23.83;;
33413;SDS011;60055;41.884;12.534;2022-12-07T00:41:00;52.33;;;24.42;;
33413;SDS011;60055;41.884;12.534;2022-12-07T00:43:27;52.03;;;24.50;;
33413;SDS011;60055;41.884;12.534;2022-12-07T00:45:53;59.85;;;24.90;;
33413;SDS011;60055;41.884;12.534;2022-12-07T00:48:20;54.78;;;24.48;;
33413;SDS011;60055;41.884;12.534;2022-12-07T00:50:47;49.45;;;23.55;;
33413;SDS011;60055;41.884;12.534;2022-12-07T00:53:13;45.63;;;23.77;;
33413;SDS011;60055;41.884;12.534;2022-12-07T00:55:39;49.40;;;23.52;;
33413;SDS011;60055;41.884;12.534;2022-12-07T00:58:05;50.45;;;23.23;;
33413;SDS011;60055;41.884;12.534;2022-12-07T01:00:31;53.22;;;23.13;;
33413;SDS011;60055;41.884;12.534;2022-12-07T01:02:58;50.92;;;22.90;;
33413;SDS011;60055;41.884;12.534;2022-12-07T01:05:24;50.83;;;23.20;;
33413;SDS011;60055;41.884;12.534;2022-12-07T01:07:49;47.92;;;21.55;;
33413;SDS011;60055;41.884;12.534;2022-12-07T01:10:15;52.35;;;21.30;;
33413;SDS011;60055;41.884;12.534;2022-12-07T01:12:41;42.65;;;20.30;;
33413;SDS011;60055;41.884;12.534;2022-12-07T01:15:07;42.90;;;20.38;;
33413;SDS011;60055;41.884;12.534;2022-12-07T01:17:33;38.72;;;20.38;;
33413;SDS011;60055;41.884;12.534;2022-12-07T01:19:59;50.35;;;18.88;;
33413;SDS011;60055;41.884;12.534;2022-12-07T01:22:25;43.40;;;19.13;;
33413;SDS011;60055;41.884;12.534;2022-12-07T01:24:50;41.45;;;18.67;;
33413;SDS011;60055;41.884;12.534;2022-12-07T01:27:16;37.20;;;18.27;;
33413;SDS011;60055;41.884;12.534;2022-12-07T01:29:42;44.20;;;18.63;;
33413;SDS011;60055;41.884;12.534;2022-12-07T01:32:07;44.38;;;18.10;;
33413;SDS011;60055;41.884;12.534;2022-12-07T01:34:33;40.30;;;17.52;;
33413;SDS011;60055;41.884;12.534;2022-12-07T01:36:58;46.95;;;17.75;;
33413;SDS011;60055;41.884;12.534;2022-12-07T01:39:24;39.97;;;17.10;;
33413;SDS011;60055;41.884;12.534;2022-12-07T01:41:50;38.75;;;17.90;;
33413;SDS011;60055;41.884;12.534;2022-12-07T01:46:45;37.55;;;17.50;;
33413;SDS011;60055;41.884;12.534;2022-12-07T01:49:24;47.33;;;18.88;;
33413;SDS011;60055;41.884;12.534;2022-12-07T01:52:22;39.83;;;16.88;;
33413;SDS011;60055;41.884;12.534;2022-12-07T01:54:58;36.80;;;17.33;;
33413;SDS011;60055;41.884;12.534;2022-12-07T01:57:33;42.53;;;16.48;;
33413;SDS011;60055;41.884;12.534;2022-12-07T02:00:01;41.13;;;16.98;;
33413;SDS011;60055;41.884;12.534;2022-12-07T02:02:30;41.78;;;16.40;;
33413;SDS011;60055;41.884;12.534;2022-12-07T02:05:03;37.42;;;15.90;;
33413;SDS011;60055;41.884;12.534;2022-12-07T02:07:30;36.33;;;14.90;;
33413;SDS011;60055;41.884;12.534;2022-12-07T02:10:18;41.35;;;16.50;;
33413;SDS011;60055;41.884;12.534;2022-12-07T02:12:47;38.42;;;15.77;;
33413;SDS011;60055;41.884;12.534;2022-12-07T02:15:16;35.63;;;15.45;;
33413;SDS011;60055;41.884;12.534;2022-12-07T02:20:47;38.50;;;15.60;;
33413;SDS011;60055;41.884;12.534;2022-12-07T02:23:31;30.05;;;14.73;;
33413;SDS011;60055;41.884;12.534;2022-12-07T02:31:28;34.00;;;14.13;;
33413;SDS011;60055;41.884;12.534;2022-12-07T02:34:09;40.05;;;15.73;;
33413;SDS011;60055;41.884;12.534;2022-12-07T02:36:45;39.33;;;15.25;;
33413;SDS011;60055;41.884;12.534;2022-12-07T02:39:34;36.03;;;14.60;;
33413;SDS011;60055;41.884;12.534;2022-12-07T02:42:09;32.85;;;15.00;;
33413;SDS011;60055;41.884;12.534;2022-12-07T02:44:47;42.92;;;14.57;;
33413;SDS011;60055;41.884;12.534;2022-12-07T02:47:14;37.28;;;15.65;;
33413;SDS011;60055;41.884;12.534;2022-12-07T02:49:45;32.97;;;14.65;;
33413;SDS011;60055;41.884;12.534;2022-12-07T02:52:11;35.25;;;15.18;;
33413;SDS011;60055;41.884;12.534;2022-12-07T02:54:37;32.97;;;15.35;;
33413;SDS011;60055;41.884;12.534;2022-12-07T02:57:16;42.22;;;15.15;;
33413;SDS011;60055;41.884;12.534;2022-12-07T03:00:17;36.03;;;14.23;;
33413;SDS011;60055;41.884;12.534;2022-12-07T03:02:56;31.73;;;14.23;;
33413;SDS011;60055;41.884;12.534;2022-12-07T03:08:13;29.27;;;12.90;;
33413;SDS011;60055;41.884;12.534;2022-12-07T03:11:50;36.13;;;13.05;;
33413;SDS011;60055;41.884;12.534;2022-12-07T03:13:59;37.28;;;14.45;;
33413;SDS011;60055;41.884;12.534;2022-12-07T03:16:30;37.13;;;14.52;;
33413;SDS011;60055;41.884;12.534;2022-12-07T03:21:40;36.42;;;14.77;;
33413;SDS011;60055;41.884;12.534;2022-12-07T03:24:10;30.00;;;14.20;;
33413;SDS011;60055;41.884;12.534;2022-12-07T03:26:44;35.50;;;13.65;;
33413;SDS011;60055;41.884;12.534;2022-12-07T03:29:23;33.15;;;14.75;;
33413;SDS011;60055;41.884;12.534;2022-12-07T03:31:55;31.27;;;15.18;;
33413;SDS011;60055;41.884;12.534;2022-12-07T03:34:46;36.03;;;15.65;;
33413;SDS011;60055;41.884;12.534;2022-12-07T03:37:28;35.03;;;14.00;;
33413;SDS011;60055;41.884;12.534;2022-12-07T03:40:29;33.90;;;14.93;;
33413;SDS011;60055;41.884;12.534;2022-12-07T03:43:09;33.45;;;15.38;;
33413;SDS011;60055;41.884;12.534;2022-12-07T03:45:40;36.50;;;15.52;;
33413;SDS011;60055;41.884;12.534;2022-12-07T03:48:25;35.47;;;14.98;;
33413;SDS011;60055;41.884;12.534;2022-12-07T03:53:42;33.50;;;14.52;;
33413;SDS011;60055;41.884;12.534;2022-12-07T03:56:22;34.28;;;14.50;;
33413;SDS011;60055;41.884;12.534;2022-12-07T03:58:48;35.55;;;14.25;;
33413;SDS011;60055;41.884;12.534;2022-12-07T04:01:14;34.10;;;14.55;;
33413;SDS011;60055;41.884;12.534;2022-12-07T04:03:40;34.00;;;14.77;;
33413;SDS011;60055;41.884;12.534;2022-12-07T04:06:06;29.33;;;13.85;;
33413;SDS011;60055;41.884;12.534;2022-12-07T04:08:31;31.92;;;14.02;;
33413;SDS011;60055;41.884;12.534;2022-12-07T04:10:57;37.58;;;14.05;;
33413;SDS011;60055;41.884;12.534;2022-12-07T04:13:22;27.08;;;13.80;;
33413;SDS011;60055;41.884;12.534;2022-12-07T04:15:48;31.70;;;14.13;;
33413;SDS011;60055;41.884;12.534;2022-12-07T04:18:14;31.80;;;13.90;;
33413;SDS011;60055;41.884;12.534;2022-12-07T04:20:39;29.15;;;11.95;;
33413;SDS011;60055;41.884;12.534;2022-12-07T04:23:06;33.42;;;13.60;;
33413;SDS011;60055;41.884;12.534;2022-12-07T04:25:31;28.25;;;13.18;;
33413;SDS011;60055;41.884;12.534;2022-12-07T04:27:57;34.47;;;12.85;;
33413;SDS011;60055;41.884;12.534;2022-12-07T04:30:22;29.05;;;14.00;;
33413;SDS011;60055;41.884;12.534;2022-12-07T04:32:48;29.88;;;14.82;;
33413;SDS011;60055;41.884;12.534;2022-12-07T04:35:17;31.38;;;14.82;;
33413;SDS011;60055;41.884;12.534;2022-12-07T04:37:43;42.42;;;15.18;;
33413;SDS011;60055;41.884;12.534;2022-12-07T04:40:09;36.33;;;14.85;;
33413;SDS011;60055;41.884;12.534;2022-12-07T04:42:36;31.63;;;14.25;;
33413;SDS011;60055;41.884;12.534;2022-12-07T04:45:02;32.92;;;13.18;;
33413;SDS011;60055;41.884;12.534;2022-12-07T04:47:28;34.25;;;12.05;;
33413;SDS011;60055;41.884;12.534;2022-12-07T04:49:53;31.05;;;12.00;;
33413;SDS011;60055;41.884;12.534;2022-12-07T04:52:21;39.55;;;12.25;;
33413;SDS011;60055;41.884;12.534;2022-12-07T04:54:47;30.17;;;11.30;;
33413;SDS011;60055;41.884;12.534;2022-12-07T04:57:13;28.65;;;11.15;;
33413;SDS011;60055;41.884;12.534;2022-12-07T04:59:38;29.60;;;11.35;;
33413;SDS011;60055;41.884;12.534;2022-12-07T05:02:04;27.80;;;11.68;;
33413;SDS011;60055;41.884;12.534;2022-12-07T05:04:29;30.88;;;11.88;;
33413;SDS011;60055;41.884;12.534;2022-12-07T05:06:55;38.17;;;11.77;;
33413;SDS011;60055;41.884;12.534;2022-12-07T05:09:21;30.70;;;12.30;;
33413;SDS011;60055;41.884;12.534;2022-12-07T05:11:46;26.17;;;11.25;;
33413;SDS011;60055;41.884;12.534;2022-12-07T05:14:19;30.45;;;11.15;;
33413;SDS011;60055;41.884;12.534;2022-12-07T05:16:46;32.20;;;10.30;;
33413;SDS011;60055;41.884;12.534;2022-12-07T05:19:15;26.48;;;10.32;;
33413;SDS011;60055;41.884;12.534;2022-12-07T05:21:41;29.10;;;11.50;;
33413;SDS011;60055;41.884;12.534;2022-12-07T05:24:08;30.65;;;12.32;;
33413;SDS011;60055;41.884;12.534;2022-12-07T05:26:35;25.83;;;11.63;;
33413;SDS011;60055;41.884;12.534;2022-12-07T05:29:00;29.95;;;11.27;;
33413;SDS011;60055;41.884;12.534;2022-12-07T05:31:26;27.27;;;11.32;;
33413;SDS011;60055;41.884;12.534;2022-12-07T05:33:52;31.83;;;11.60;;
33413;SDS011;60055;41.884;12.534;2022-12-07T05:36:18;31.33;;;10.93;;
33413;SDS011;60055;41.884;12.534;2022-12-07T05:38:44;30.00;;;11.10;;
33413;SDS011;60055;41.884;12.534;2022-12-07T05:41:12;30.48;;;10.10;;
33413;SDS011;60055;41.884;12.534;2022-12-07T05:43:58;32.58;;;10.23;;
33413;SDS011;60055;41.884;12.534;2022-12-07T05:46:24;24.38;;;10.73;;
33413;SDS011;60055;41.884;12.534;2022-12-07T05:48:49;27.92;;;10.40;;
33413;SDS011;60055;41.884;12.534;2022-12-07T05:51:15;31.60;;;12.20;;
33413;SDS011;60055;41.884;12.534;2022-12-07T05:53:41;34.17;;;11.57;;
33413;SDS011;60055;41.884;12.534;2022-12-07T05:56:07;39.88;;;12.35;;
33413;SDS011;60055;41.884;12.534;2022-12-07T05:58:33;30.88;;;11.93;;
33413;SDS011;60055;41.884;12.534;2022-12-07T06:01:17;33.85;;;11.50;;
33413;SDS011;60055;41.884;12.534;2022-12-07T06:03:43;28.70;;;11.68;;
33413;SDS011;60055;41.884;12.534;2022-12-07T06:06:12;28.00;;;11.88;;
33413;SDS011;60055;41.884;12.534;2022-12-07T06:08:38;36.40;;;12.80;;
33413;SDS011;60055;41.884;12.534;2022-12-07T06:11:04;29.75;;;12.77;;
33413;SDS011;60055;41.884;12.534;2022-12-07T06:13:48;27.75;;;13.23;;
33413;SDS011;60055;41.884;12.534;2022-12-07T06:16:14;34.38;;;13.98;;
33413;SDS011;60055;41.884;12.534;2022-12-07T06:18:39;31.52;;;13.50;;
33413;SDS011;60055;41.884;12.534;2022-12-07T06:21:05;29.52;;;12.80;;
33413;SDS011;60055;41.884;12.534;2022-12-07T06:23:30;27.08;;;12.00;;
33413;SDS011;60055;41.884;12.534;2022-12-07T06:25:56;32.72;;;12.25;;
33413;SDS011;60055;41.884;12.534;2022-12-07T06:28:22;29.05;;;12.10;;
33413;SDS011;60055;41.884;12.534;2022-12-07T06:30:47;33.72;;;12.65;;
33413;SDS011;60055;41.884;12.534;2022-12-07T06:33:21;39.03;;;13.15;;
33413;SDS011;60055;41.884;12.534;2022-12-07T06:35:46;32.42;;;11.80;;
33413;SDS011;60055;41.884;12.534;2022-12-07T06:38:12;28.83;;;13.07;;
33413;SDS011;60055;41.884;12.534;2022-12-07T06:40:39;28.77;;;12.68;;
33413;SDS011;60055;41.884;12.534;2022-12-07T06:43:04;30.92;;;12.65;;
33413;SDS011;60055;41.884;12.534;2022-12-07T06:45:30;34.70;;;12.32;;
33413;SDS011;60055;41.884;12.534;2022-12-07T06:47:57;26.33;;;12.68;;
33413;SDS011;60055;41.884;12.534;2022-12-07T06:50:22;33.00;;;12.07;;
33413;SDS011;60055;41.884;12.534;2022-12-07T06:52:48;31.98;;;12.55;;
33413;SDS011;60055;41.884;12.534;2022-12-07T06:55:15;24.45;;;12.57;;
33413;SDS011;60055;41.884;12.534;2022-12-07T06:57:41;33.00;;;12.48;;
33413;SDS011;60055;41.884;12.534;2022-12-07T07:00:10;26.92;;;11.82;;
33413;SDS011;60055;41.884;12.534;2022-12-07T07:02:36;32.95;;;13.70;;
33413;SDS011;60055;41.884;12.534;2022-12-07T07:05:02;31.90;;;13.07;;
33413;SDS011;60055;41.884;12.534;2022-12-07T07:07:27;26.85;;;13.27;;
33413;SDS011;60055;41.884;12.534;2022-12-07T07:09:53;34.03;;;13.77;;
33413;SDS011;60055;41.884;12.534;2022-12-07T07:12:19;28.05;;;12.68;;
33413;SDS011;60055;41.884;12.534;2022-12-07T07:14:44;42.97;;;12.80;;
33413;SDS011;60055;41.884;12.534;2022-12-07T07:17:10;31.75;;;13.63;;
33413;SDS011;60055;41.884;12.534;2022-12-07T07:19:35;31.15;;;12.23;;
33413;SDS011;60055;41.884;12.534;2022-12-07T07:22:02;28.85;;;12.70;;
33413;SDS011;60055;41.884;12.534;2022-12-07T07:24:28;31.95;;;12.13;;
33413;SDS011;60055;41.884;12.534;2022-12-07T07:26:54;32.72;;;11.95;;
33413;SDS011;60055;41.884;12.534;2022-12-07T07:29:20;30.83;;;10.93;;
33413;SDS011;60055;41.884;12.534;2022-12-07T07:31:46;33.92;;;10.90;;
33413;SDS011;60055;41.884;12.534;2022-12-07T07:34:11;41.30;;;11.50;;
33413;SDS011;60055;41.884;12.534;2022-12-07T07:36:37;34.63;;;10.90;;
33413;SDS011;60055;41.884;12.534;2022-12-07T07:39:03;27.25;;;11.15;;
33413;SDS011;60055;41.884;12.534;2022-12-07T07:41:29;28.05;;;11.98;;
33413;SDS011;60055;41.884;12.534;2022-12-07T07:43:55;23.90;;;11.55;;
33413;SDS011;60055;41.884;12.534;2022-12-07T07:46:22;34.28;;;12.43;;
33413;SDS011;60055;41.884;12.534;2022-12-07T07:48:48;30.08;;;10.95;;
33413;SDS011;60055;41.884;12.534;2022-12-07T07:51:13;24.63;;;10.68;;
33413;SDS011;60055;41.884;12.534;2022-12-07T07:53:39;26.85;;;10.18;;
33413;SDS011;60055;41.884;12.534;2022-12-07T07:56:05;31.63;;;10.07;;
33413;SDS011;60055;41.884;12.534;2022-12-07T07:58:30;30.77;;;9.80;;
33413;SDS011;60055;41.884;12.534;2022-12-07T08:00:56;29.50;;;11.00;;
33413;SDS011;60055;41.884;12.534;2022-12-07T08:03:22;32.30;;;12.50;;
33413;SDS011;60055;41.884;12.534;2022-12-07T08:05:47;31.42;;;11.82;;
33413;SDS011;60055;41.884;12.534;2022-12-07T08:08:13;26.35;;;10.73;;
33413;SDS011;60055;41.884;12.534;2022-12-07T08:10:40;33.55;;;14.70;;
33413;SDS011;60055;41.884;12.534;2022-12-07T08:13:05;30.50;;;12.13;;
33413;SDS011;60055;41.884;12.534;2022-12-07T08:15:37;29.67;;;10.70;;
33413;SDS011;60055;41.884;12.534;2022-12-07T08:18:03;24.17;;;10.35;;
33413;SDS011;60055;41.884;12.534;2022-12-07T08:20:30;28.17;;;11.05;;
33413;SDS011;60055;41.884;12.534;2022-12-07T08:22:56;29.42;;;9.32;;
33413;SDS011;60055;41.884;12.534;2022-12-07T08:25:22;32.92;;;9.98;;
33413;SDS011;60055;41.884;12.534;2022-12-07T08:27:48;40.80;;;10.00;;
33413;SDS011;60055;41.884;12.534;2022-12-07T08:30:14;37.70;;;8.82;;
33413;SDS011;60055;41.884;12.534;2022-12-07T08:32:40;28.10;;;8.70;;
33413;SDS011;60055;41.884;12.534;2022-12-07T08:35:06;25.05;;;8.35;;
33413;SDS011;60055;41.884;12.534;2022-12-07T08:37:33;22.15;;;7.93;;
33413;SDS011;60055;41.884;12.534;2022-12-07T08:39:58;26.67;;;8.32;;
33413;SDS011;60055;41.884;12.534;2022-12-07T08:42:24;25.42;;;8.60;;
33413;SDS011;60055;41.884;12.534;2022-12-07T08:44:54;20.77;;;8.20;;
33413;SDS011;60055;41.884;12.534;2022-12-07T08:47:20;25.58;;;8.05;;
33413;SDS011;60055;41.884;12.534;2022-12-07T08:49:47;23.65;;;7.70;;
33413;SDS011;60055;41.884;12.534;2022-12-07T08:52:17;27.10;;;8.65;;
33413;SDS011;60055;41.884;12.534;2022-12-07T08:54:42;27.35;;;8.27;;
33413;SDS011;60055;41.884;12.534;2022-12-07T08:57:09;29.52;;;8.00;;
33413;SDS011;60055;41.884;12.534;2022-12-07T08:59:36;25.27;;;7.60;;
33413;SDS011;60055;41.884;12.534;2022-12-07T09:02:03;32.25;;;7.50;;
33413;SDS011;60055;41.884;12.534;2022-12-07T09:04:29;21.65;;;7.15;;
33413;SDS011;60055;41.884;12.534;2022-12-07T09:06:55;27.95;;;7.18;;
33413;SDS011;60055;41.884;12.534;2022-12-07T09:09:21;22.58;;;7.45;;
33413;SDS011;60055;41.884;12.534;2022-12-07T09:11:46;26.25;;;8.32;;
33413;SDS011;60055;41.884;12.534;2022-12-07T09:14:12;27.08;;;9.02;;
33413;SDS011;60055;41.884;12.534;2022-12-07T09:16:38;24.27;;;7.28;;
33413;SDS011;60055;41.884;12.534;2022-12-07T09:19:04;27.05;;;7.13;;
33413;SDS011;60055;41.884;12.534;2022-12-07T09:21:30;24.48;;;6.70;;
33413;SDS011;60055;41.884;12.534;2022-12-07T09:23:55;23.42;;;7.10;;
33413;SDS011;60055;41.884;12.534;2022-12-07T09:26:24;23.33;;;6.30;;
33413;SDS011;60055;41.884;12.534;2022-12-07T09:28:49;22.45;;;7.22;;
33413;SDS011;60055;41.884;12.534;2022-12-07T09:31:15;20.63;;;6.20;;
33413;SDS011;60055;41.884;12.534;2022-12-07T09:33:42;20.33;;;6.10;;
33413;SDS011;60055;41.884;12.534;2022-12-07T09:36:07;50.50;;;7.65;;
33413;SDS011;60055;41.884;12.534;2022-12-07T09:38:34;20.25;;;6.30;;
33413;SDS011;60055;41.884;12.534;2022-12-07T09:41:03;24.70;;;6.70;;
33413;SDS011;60055;41.884;12.534;2022-12-07T09:43:33;21.58;;;6.07;;
33413;SDS011;60055;41.884;12.534;2022-12-07T09:46:01;27.35;;;7.28;;
33413;SDS011;60055;41.884;12.534;2022-12-07T09:48:32;20.33;;;5.80;;
33413;SDS011;60055;41.884;12.534;2022-12-07T09:51:11;20.70;;;5.88;;
33413;SDS011;60055;41.884;12.534;2022-12-07T09:53:44;26.02;;;6.03;;
33413;SDS011;60055;41.884;12.534;2022-12-07T09:56:12;20.02;;;6.18;;
33413;SDS011;60055;41.884;12.534;2022-12-07T09:58:39;18.48;;;6.07;;
33413;SDS011;60055;41.884;12.534;2022-12-07T10:03:37;24.00;;;6.18;;
33413;SDS011;60055;41.884;12.534;2022-12-07T10:06:04;21.35;;;5.78;;
33413;SDS011;60055;41.884;12.534;2022-12-07T10:08:31;24.98;;;6.55;;
33413;SDS011;60055;41.884;12.534;2022-12-07T10:10:57;28.15;;;6.20;;
33413;SDS011;60055;41.884;12.534;2022-12-07T10:16:06;29.88;;;7.20;;
33413;SDS011;60055;41.884;12.534;2022-12-07T10:18:53;26.48;;;6.55;;
33413;SDS011;60055;41.884;12.534;2022-12-07T10:21:23;22.83;;;5.45;;
33413;SDS011;60055;41.884;12.534;2022-12-07T10:24:01;23.50;;;6.20;;
33413;SDS011;60055;41.884;12.534;2022-12-07T10:26:35;21.33;;;6.13;;
33413;SDS011;60055;41.884;12.534;2022-12-07T10:31:39;29.75;;;7.68;;
33413;SDS011;60055;41.884;12.534;2022-12-07T10:34:12;25.65;;;8.68;;
33413;SDS011;60055;41.884;12.534;2022-12-07T10:36:49;25.50;;;7.68;;
33413;SDS011;60055;41.884;12.534;2022-12-07T10:39:19;26.67;;;8.13;;
33413;SDS011;60055;41.884;12.534;2022-12-07T10:44:24;24.70;;;8.45;;
33413;SDS011;60055;41.884;12.534;2022-12-07T10:47:05;26.98;;;7.00;;
33413;SDS011;60055;41.884;12.534;2022-12-07T11:10:26;28.17;;;6.28;;
33413;SDS011;60055;41.884;12.534;2022-12-07T11:13:52;25.00;;;6.88;;
33413;SDS011;60055;41.884;12.534;2022-12-07T11:16:15;28.20;;;7.05;;
33413;SDS011;60055;41.884;12.534;2022-12-07T11:19:04;23.13;;;7.13;;
33413;SDS011;60055;41.884;12.534;2022-12-07T11:21:57;27.70;;;6.85;;
33413;SDS011;60055;41.884;12.534;2022-12-07T11:24:32;25.83;;;7.32;;
33413;SDS011;60055;41.884;12.534;2022-12-07T11:27:15;33.70;;;7.32;;
33413;SDS011;60055;41.884;12.534;2022-12-07T11:38:01;28.65;;;6.80;;
33413;SDS011;60055;41.884;12.534;2022-12-07T11:40:46;26.35;;;7.28;;
33413;SDS011;60055;41.884;12.534;2022-12-07T11:45:47;29.38;;;7.88;;
33413;SDS011;60055;41.884;12.534;2022-12-07T11:49:10;24.15;;;7.10;;
33413;SDS011;60055;41.884;12.534;2022-12-07T11:51:39;27.23;;;7.82;;
33413;SDS011;60055;41.884;12.534;2022-12-07T11:54:23;24.63;;;6.90;;
33413;SDS011;60055;41.884;12.534;2022-12-07T11:56:54;30.33;;;8.30;;
33413;SDS011;60055;41.884;12.534;2022-12-07T11:59:45;26.77;;;7.75;;
33413;SDS011;60055;41.884;12.534;2022-12-07T12:02:16;29.90;;;7.20;;
33413;SDS011;60055;41.884;12.534;2022-12-07T12:07:28;31.13;;;6.93;;
33413;SDS011;60055;41.884;12.534;2022-12-07T12:10:06;29.58;;;7.78;;
33413;SDS011;60055;41.884;12.534;2022-12-07T12:13:02;27.85;;;7.25;;
33413;SDS011;60055;41.884;12.534;2022-12-07T12:18:41;31.52;;;7.97;;
33413;SDS011;60055;41.884;12.534;2022-12-07T12:21:26;28.05;;;7.95;;
33413;SDS011;60055;41.884;12.534;2022-12-07T12:23:59;31.67;;;7.40;;
33413;SDS011;60055;41.884;12.534;2022-12-07T12:26:33;21.92;;;7.22;;
33413;SDS011;60055;41.884;12.534;2022-12-07T12:29:02;32.28;;;7.63;;
33413;SDS011;60055;41.884;12.534;2022-12-07T12:31:39;26.80;;;7.13;;
33413;SDS011;60055;41.884;12.534;2022-12-07T12:37:02;25.02;;;7.20;;
33413;SDS011;60055;41.884;12.534;2022-12-07T12:43:27;23.42;;;6.50;;
33413;SDS011;60055;41.884;12.534;2022-12-07T12:54:38;26.85;;;7.20;;
33413;SDS011;60055;41.884;12.534;2022-12-07T12:57:29;27.27;;;6.50;;
33413;SDS011;60055;41.884;12.534;2022-12-07T12:59:57;26.02;;;7.78;;
33413;SDS011;60055;41.884;12.534;2022-12-07T13:02:53;35.33;;;8.27;;
33413;SDS011;60055;41.884;12.534;2022-12-07T13:05:21;26.92;;;7.35;;
33413;SDS011;60055;41.884;12.534;2022-12-07T13:07:53;26.63;;;6.70;;
33413;SDS011;60055;41.884;12.534;2022-12-07T13:15:36;25.95;;;7.30;;
33413;SDS011;60055;41.884;12.534;2022-12-07T13:26:19;33.70;;;9.90;;
33413;SDS011;60055;41.884;12.534;2022-12-07T13:31:41;25.70;;;8.70;;
33413;SDS011;60055;41.884;12.534;2022-12-07T13:34:27;25.05;;;8.07;;
33413;SDS011;60055;41.884;12.534;2022-12-07T13:36:56;35.20;;;8.88;;
33413;SDS011;60055;41.884;12.534;2022-12-07T13:39:24;35.95;;;9.55;;
33413;SDS011;60055;41.884;12.534;2022-12-07T13:44:22;30.45;;;9.50;;
33413;SDS011;60055;41.884;12.534;2022-12-07T13:46:53;34.83;;;7.65;;
33413;SDS011;60055;41.884;12.534;2022-12-07T13:52:14;37.53;;;8.88;;
33413;SDS011;60055;41.884;12.534;2022-12-07T13:54:45;29.33;;;7.75;;
33413;SDS011;60055;41.884;12.534;2022-12-07T13:57:13;27.95;;;8.98;;
33413;SDS011;60055;41.884;12.534;2022-12-07T13:59:41;26.70;;;7.65;;
33413;SDS011;60055;41.884;12.534;2022-12-07T14:02:20;27.00;;;7.85;;
33413;SDS011;60055;41.884;12.534;2022-12-07T14:04:50;23.85;;;6.68;;
33413;SDS011;60055;41.884;12.534;2022-12-07T14:07:24;25.75;;;6.70;;
33413;SDS011;60055;41.884;12.534;2022-12-07T14:10:00;27.65;;;6.88;;
33413;SDS011;60055;41.884;12.534;2022-12-07T14:12:31;27.17;;;6.82;;
33413;SDS011;60055;41.884;12.534;2022-12-07T14:15:00;25.27;;;6.40;;
33413;SDS011;60055;41.884;12.534;2022-12-07T14:17:27;35.22;;;6.80;;
33413;SDS011;60055;41.884;12.534;2022-12-07T14:19:54;26.27;;;6.38;;
33413;SDS011;60055;41.884;12.534;2022-12-07T14:27:59;31.10;;;7.68;;
33413;SDS011;60055;41.884;12.534;2022-12-07T14:30:30;24.65;;;6.80;;
33413;SDS011;60055;41.884;12.534;2022-12-07T14:32:58;25.02;;;6.80;;
33413;SDS011;60055;41.884;12.534;2022-12-07T14:35:27;22.20;;;6.78;;
33413;SDS011;60055;41.884;12.534;2022-12-07T14:37:55;21.17;;;6.28;;
33413;SDS011;60055;41.884;12.534;2022-12-07T14:40:24;25.65;;;7.03;;
33413;SDS011;60055;41.884;12.534;2022-12-07T14:42:54;28.13;;;6.63;;
33413;SDS011;60055;41.884;12.534;2022-12-07T14:45:23;29.25;;;6.88;;
33413;SDS011;60055;41.884;12.534;2022-12-07T14:47:48;26.90;;;6.63;;
33413;SDS011;60055;41.884;12.534;2022-12-07T14:50:15;30.00;;;6.55;;
33413;SDS011;60055;41.884;12.534;2022-12-07T14:52:43;29.98;;;6.65;;
33413;SDS011;60055;41.884;12.534;2022-12-07T14:55:17;33.20;;;7.35;;
33413;SDS011;60055;41.884;12.534;2022-12-07T14:57:52;29.38;;;7.55;;
33413;SDS011;60055;41.884;12.534;2022-12-07T15:00:18;31.55;;;7.28;;
33413;SDS011;60055;41.884;12.534;2022-12-07T15:02:45;27.80;;;8.20;;
33413;SDS011;60055;41.884;12.534;2022-12-07T15:05:12;30.98;;;7.72;;
33413;SDS011;60055;41.884;12.534;2022-12-07T15:07:38;26.52;;;7.75;;
33413;SDS011;60055;41.884;12.534;2022-12-07T15:10:06;27.42;;;7.25;;
33413;SDS011;60055;41.884;12.534;2022-12-07T15:12:36;24.40;;;7.78;;
33413;SDS011;60055;41.884;12.534;2022-12-07T15:15:01;32.63;;;8.68;;
33413;SDS011;60055;41.884;12.534;2022-12-07T15:17:27;35.22;;;8.00;;
33413;SDS011;60055;41.884;12.534;2022-12-07T15:19:55;30.48;;;9.48;;
33413;SDS011;60055;41.884;12.534;2022-12-07T15:22:21;30.63;;;8.27;;
33413;SDS011;60055;41.884;12.534;2022-12-07T15:24:47;30.73;;;8.27;;
33413;SDS011;60055;41.884;12.534;2022-12-07T15:27:12;29.30;;;8.43;;
33413;SDS011;60055;41.884;12.534;2022-12-07T15:29:38;29.23;;;9.57;;
33413;SDS011;60055;41.884;12.534;2022-12-07T15:32:06;32.17;;;9.90;;
33413;SDS011;60055;41.884;12.534;2022-12-07T15:34:35;30.95;;;10.57;;
33413;SDS011;60055;41.884;12.534;2022-12-07T15:37:00;33.63;;;10.20;;
33413;SDS011;60055;41.884;12.534;2022-12-07T15:39:26;35.50;;;10.40;;
33413;SDS011;60055;41.884;12.534;2022-12-07T15:41:52;32.45;;;10.85;;
33413;SDS011;60055;41.884;12.534;2022-12-07T15:44:17;24.90;;;8.68;;
33413;SDS011;60055;41.884;12.534;2022-12-07T15:49:28;25.33;;;8.50;;
33413;SDS011;60055;41.884;12.534;2022-12-07T15:51:54;35.25;;;11.73;;
33413;SDS011;60055;41.884;12.534;2022-12-07T15:54:27;38.40;;;11.18;;
33413;SDS011;60055;41.884;12.534;2022-12-07T15:56:57;32.63;;;10.70;;
33413;SDS011;60055;41.884;12.534;2022-12-07T15:59:23;36.47;;;11.55;;
33413;SDS011;60055;41.884;12.534;2022-12-07T16:01:50;34.75;;;10.70;;
33413;SDS011;60055;41.884;12.534;2022-12-07T16:04:18;39.08;;;11.43;;
33413;SDS011;60055;41.884;12.534;2022-12-07T16:06:43;38.33;;;10.48;;
33413;SDS011;60055;41.884;12.534;2022-12-07T16:09:09;31.05;;;9.32;;
33413;SDS011;60055;41.884;12.534;2022-12-07T16:11:35;37.10;;;11.65;;
33413;SDS011;60055;41.884;12.534;2022-12-07T16:14:01;37.90;;;10.80;;
33413;SDS011;60055;41.884;12.534;2022-12-07T16:16:26;35.63;;;10.85;;
33413;SDS011;60055;41.884;12.534;2022-12-07T16:18:52;23.08;;;9.88;;
33413;SDS011;60055;41.884;12.534;2022-12-07T16:21:19;45.60;;;12.25;;
33413;SDS011;60055;41.884;12.534;2022-12-07T16:23:45;41.55;;;11.43;;
33413;SDS011;60055;41.884;12.534;2022-12-07T16:26:12;43.13;;;11.85;;